Knowlton, Canada
Current Conditions -  °F | °C
As of 1:55 PM on Friday 21 Nov 2014 (Local Time) from KEFK Reporting Station
Clear Clear  
Wind Chill:   Ceiling: Unl
Heat Index: 20°   Visibility: 7mi
Dew Point:   Wind: 16mph
Humidity: 56%   Direction: 280°W
Pressure: 30.14"   Gusts: 24mph
Location:  45.22°N, 72.52°W
Report Text: KEFK 211855Z AUTO 28014G21KT 7SM CLR M07/M14 A3014 RMK AO2 T10671141
Loading
Personal Weather Stations






























Interactive Weather Map New forecast layout! Learn more

10-Day Weather Forecast

Advertisements
Track Severe Weather on mobile